createdAt,value
2022-09-30T00:10:17.644Z,100.00
2022-09-30T00:25:20.812Z,100.00
2022-09-30T00:40:23.904Z,100.00
2022-09-30T00:55:35.010Z,100.00
2022-09-30T01:10:38.398Z,99.96
2022-09-30T01:26:13.001Z,99.96
2022-09-30T01:41:29.907Z,99.91
2022-09-30T01:56:36.454Z,100.00
2022-09-30T02:11:42.791Z,99.84
2022-09-30T02:26:49.571Z,99.79
2022-09-30T02:41:58.917Z,99.90
2022-09-30T02:57:20.506Z,99.70
2022-09-30T03:12:48.458Z,99.91
2022-09-30T03:28:00.452Z,100.00
2022-09-30T03:43:31.742Z,100.00
2022-09-30T03:58:35.545Z,100.00
2022-09-30T04:13:39.576Z,100.00
2022-09-30T04:28:43.910Z,100.00
2022-09-30T04:43:48.699Z,99.93
2022-09-30T04:58:53.720Z,99.97
2022-09-30T05:13:57.087Z,99.92
2022-09-30T05:29:00.229Z,99.95
2022-09-30T05:44:03.627Z,99.83
2022-09-30T05:59:07.934Z,99.94
2022-09-30T06:14:11.150Z,99.84
2022-09-30T06:29:14.707Z,100.00
2022-09-30T06:44:18.391Z,100.00
2022-09-30T06:59:21.958Z,100.00
2022-09-30T07:14:25.264Z,100.00
2022-09-30T07:29:36.576Z,100.00
2022-09-30T07:44:49.267Z,100.00
2022-09-30T07:59:52.378Z,100.00
2022-09-30T08:14:55.417Z,100.00
2022-09-30T08:30:02.294Z,100.00
2022-09-30T08:45:24.847Z,99.75
2022-09-30T09:00:28.353Z,98.48
2022-09-30T09:15:52.798Z,95.46
2022-09-30T09:30:59.955Z,94.13
2022-09-30T09:46:38.361Z,92.06
2022-09-30T10:01:48.106Z,89.46
2022-09-30T10:17:17.885Z,84.98
2022-09-30T10:32:22.092Z,81.10
2022-09-30T10:47:31.419Z,74.66
2022-09-30T11:02:44.109Z,70.31
2022-09-30T11:17:57.999Z,65.56
2022-09-30T11:33:17.379Z,64.52
2022-09-30T11:48:36.174Z,61.87
2022-09-30T12:03:46.687Z,59.87
2022-09-30T12:19:15.769Z,60.65
2022-09-30T12:34:41.034Z,61.84
2022-09-30T12:49:47.148Z,59.26
2022-09-30T13:04:51.105Z,58.51
2022-09-30T13:19:57.618Z,58.02
2022-09-30T13:35:00.943Z,58.65
2022-09-30T13:50:20.871Z,62.15
2022-09-30T14:05:51.401Z,64.36
2022-09-30T14:21:28.011Z,66.11
2022-09-30T14:36:31.910Z,67.05
2022-09-30T14:51:47.355Z,67.84
2022-09-30T15:06:52.644Z,68.73
2022-09-30T15:22:02.855Z,69.63
2022-09-30T15:37:07.397Z,68.22
2022-09-30T15:52:36.782Z,67.53
2022-09-30T16:07:42.647Z,66.52
2022-09-30T16:22:46.601Z,68.84
2022-09-30T16:37:51.748Z,72.47
2022-09-30T16:52:55.037Z,75.35
2022-09-30T17:08:00.885Z,77.44
2022-09-30T17:23:07.317Z,80.74
2022-09-30T17:38:13.238Z,82.72
2022-09-30T17:53:18.512Z,84.06
2022-09-30T18:08:22.461Z,85.40
2022-09-30T18:23:28.124Z,86.98
2022-09-30T18:38:35.004Z,87.49
2022-09-30T18:53:39.050Z,89.18
2022-09-30T19:08:44.208Z,89.57
2022-09-30T19:23:48.937Z,89.96
2022-09-30T19:39:09.552Z,90.20
2022-09-30T19:54:15.205Z,90.58
2022-09-30T20:09:18.620Z,91.05
2022-09-30T20:24:22.655Z,91.62
2022-09-30T20:39:26.261Z,93.03
2022-09-30T20:54:31.838Z,92.77
2022-09-30T21:09:35.025Z,93.56
2022-09-30T21:24:38.572Z,93.50
2022-09-30T21:39:42.169Z,93.84
2022-09-30T21:54:45.199Z,94.06
2022-09-30T22:09:48.211Z,94.84
2022-09-30T22:24:51.475Z,94.76
2022-09-30T22:39:59.970Z,96.09
2022-09-30T22:55:04.350Z,96.45
2022-09-30T23:10:09.450Z,96.75
2022-09-30T23:25:12.945Z,97.83
2022-09-30T23:40:16.256Z,98.59
2022-09-30T23:55:19.294Z,98.61
